createdAt,value
2023-01-07T00:06:08.501Z,11.80
2023-01-07T00:16:34.053Z,13.60
2023-01-07T00:26:58.276Z,11.90
2023-01-07T00:37:40.960Z,10.80
2023-01-07T00:48:05.711Z,11.30
2023-01-07T00:58:30.711Z,9.60
2023-01-07T01:08:55.069Z,10.60
2023-01-07T01:19:19.260Z,12.20
2023-01-07T01:29:43.695Z,13.80
2023-01-07T01:40:10.166Z,13.70
2023-01-07T01:50:38.332Z,13.60
2023-01-07T02:01:02.714Z,16.60
2023-01-07T02:11:40.136Z,12.90
2023-01-07T02:22:12.442Z,12.90
2023-01-07T02:32:56.362Z,14.00
2023-01-07T02:43:30.101Z,11.10
2023-01-07T02:53:54.506Z,13.60
2023-01-07T03:04:36.818Z,12.60
2023-01-07T03:15:08.889Z,11.60
2023-01-07T03:25:37.743Z,11.60
2023-01-07T03:36:05.686Z,14.80
2023-01-07T03:56:54.017Z,11.10
2023-01-07T04:07:18.891Z,11.30
2023-01-07T04:17:43.956Z,11.10
2023-01-07T04:28:08.562Z,8.90
2023-01-07T04:38:33.016Z,9.40
2023-01-07T04:48:57.888Z,13.00
2023-01-07T04:59:22.348Z,13.00
2023-01-07T05:09:46.714Z,12.10
2023-01-07T05:20:13.100Z,10.90
2023-01-07T05:30:38.171Z,12.10
2023-01-07T05:41:02.465Z,12.30
2023-01-07T05:51:26.703Z,11.70
2023-01-07T06:01:50.904Z,14.90
2023-01-07T06:12:15.115Z,14.30
2023-01-07T06:22:39.293Z,14.40
2023-01-07T06:33:04.856Z,12.50
2023-01-07T06:43:29.283Z,14.30
2023-01-07T06:53:53.730Z,15.80
2023-01-07T07:04:17.979Z,15.50
2023-01-07T07:14:42.246Z,13.60
2023-01-07T07:25:07.871Z,15.90
2023-01-07T07:35:32.553Z,16.20
2023-01-07T07:45:58.169Z,16.70
2023-01-07T07:56:22.569Z,17.90
2023-01-07T08:06:46.822Z,20.60
2023-01-07T08:17:11.088Z,22.10
2023-01-07T08:27:35.322Z,19.80
2023-01-07T08:38:03.657Z,19.10
2023-01-07T08:48:27.948Z,23.90
2023-01-07T08:58:52.329Z,32.70
2023-01-07T09:09:17.031Z,32.50
2023-01-07T09:19:41.309Z,29.10
2023-01-07T09:30:08.928Z,26.90
2023-01-07T09:40:37.445Z,33.70
2023-01-07T09:51:04.979Z,32.10
2023-01-07T10:01:36.734Z,11.80
2023-01-07T10:12:12.689Z,12.70
2023-01-07T10:22:39.986Z,10.90
2023-01-07T10:33:20.094Z,9.70
2023-01-07T10:43:59.235Z,8.60
2023-01-07T10:54:48.626Z,11.50
2023-01-07T11:05:14.884Z,12.90
2023-01-07T11:15:45.240Z,9.50
2023-01-07T11:26:31.259Z,8.80
2023-01-07T11:36:55.515Z,6.80
2023-01-07T11:47:20.431Z,5.30
2023-01-07T11:57:56.785Z,5.90
2023-01-07T12:08:26.625Z,7.00
2023-01-07T12:19:04.140Z,6.80
2023-01-07T12:29:40.524Z,6.40
2023-01-07T12:40:18.635Z,5.10
2023-01-07T12:50:46.677Z,5.10
2023-01-07T13:01:20.201Z,5.30
2023-01-07T13:12:07.922Z,4.90
2023-01-07T13:22:55.805Z,5.00
2023-01-07T13:33:26.882Z,6.20
2023-01-07T13:44:17.618Z,4.90
2023-01-07T13:54:59.119Z,5.90
2023-01-07T14:05:27.898Z,5.00
2023-01-07T14:16:01.997Z,5.30
2023-01-07T14:26:36.416Z,3.50
2023-01-07T14:37:15.737Z,3.60
2023-01-07T14:47:55.114Z,3.80
2023-01-07T14:58:33.990Z,4.10
2023-01-07T15:09:23.478Z,4.60
2023-01-07T15:19:47.770Z,4.40
2023-01-07T15:30:22.243Z,4.50
2023-01-07T15:40:47.529Z,5.30
2023-01-07T15:51:17.265Z,6.90
2023-01-07T16:01:48.380Z,5.30
2023-01-07T16:12:26.374Z,5.70
2023-01-07T16:22:51.880Z,13.30
2023-01-07T16:33:19.505Z,4.60
2023-01-07T16:43:44.902Z,2.70
2023-01-07T16:54:40.883Z,3.60
2023-01-07T17:05:17.594Z,3.30
2023-01-07T17:15:43.643Z,2.20
2023-01-07T17:26:17.194Z,3.00
2023-01-07T17:36:41.585Z,3.60
2023-01-07T17:47:09.584Z,2.90
2023-01-07T17:57:33.825Z,3.00
2023-01-07T18:07:58.003Z,4.10
2023-01-07T18:18:22.445Z,4.30
2023-01-07T18:28:47.807Z,6.20
2023-01-07T18:39:19.195Z,3.60
2023-01-07T18:49:43.940Z,7.30
2023-01-07T19:00:10.426Z,11.50
2023-01-07T19:10:34.980Z,9.20
2023-01-07T19:21:02.807Z,8.40
2023-01-07T19:31:27.223Z,7.80
2023-01-07T19:41:51.507Z,6.40
2023-01-07T19:52:16.874Z,7.10
2023-01-07T20:02:41.148Z,8.40
2023-01-07T20:13:06.176Z,7.60
2023-01-07T20:23:30.387Z,9.10
2023-01-07T20:33:55.309Z,9.40
2023-01-07T20:44:21.102Z,8.60
2023-01-07T20:54:47.253Z,11.70
2023-01-07T21:05:11.613Z,24.70
2023-01-07T21:15:37.933Z,25.80
2023-01-07T21:26:02.174Z,33.80
2023-01-07T21:36:28.050Z,32.30
2023-01-07T21:46:52.417Z,27.80
2023-01-07T21:57:16.583Z,33.80
2023-01-07T22:07:40.914Z,37.90
2023-01-07T22:18:05.581Z,37.00
2023-01-07T22:28:32.389Z,27.20
2023-01-07T22:38:59.682Z,26.90
2023-01-07T22:49:27.153Z,33.20
2023-01-07T22:59:51.344Z,35.70
2023-01-07T23:10:15.570Z,35.90
2023-01-07T23:20:41.520Z,34.60
2023-01-07T23:31:06.071Z,37.90
2023-01-07T23:41:31.234Z,37.90
2023-01-07T23:51:55.578Z,38.10
